Weather reports worldwide

Advertisment
Sint Katelijne-Waver, Belgium (6439): temperature & dewpoint: 20.10.2020 11:00:00 - 26.10.2020 11:00:00 (CET)Sint Katelijne-Waver, Belgium (6439): wind speed & gusts: 20.10.2020 11:00:00 - 26.10.2020 11:00:00 (CET)Sint Katelijne-Waver, Belgium (6439): wind direction: 20.10.2020 11:00:00 - 26.10.2020 11:00:00 (CET)Sint Katelijne-Waver, Belgium (6439): reduced air pressure: 20.10.2020 11:00:00 - 26.10.2020 11:00:00 (CET)Sint Katelijne-Waver, Belgium (6439): sunshine duration: 20.10.2020 11:00:00 - 26.10.2020 11:00:00 (CET)Sint Katelijne-Waver, Belgium (6439): precipitation: 20.10.2020 11:00:00 - 26.10.2020 11:00:00 (CET)
Date & Time tt [°C] td [°C] ff [km/h] ff [kn] fx [km/h] fx [kn] dd ppp [hPa] sd [min] rr [mm]
26.10.2020 11:00:00 11,0 6,7 20 11 42 23 SSW 1001,4 21 0,0
26.10.2020 10:00:00 10,1 6,0 21 11 36 20 SSW 1001,9 3 0,0
26.10.2020 09:00:00 9,8 5,9 18 10 32 18 SSW 1001,8 0 0,0
26.10.2020 08:00:00 9,8 6,1 16 9 32 17 SSW 1001,7 0 0,0
26.10.2020 07:00:00 9,9 6,8 14 8 30 16 SSW 1001,1 0 0,0
26.10.2020 06:00:00 10,2 7,1 13 7 29 16 SSW 1000,5 0 0,0
26.10.2020 05:00:00 9,9 7,5 12 6 24 13 SSW 1000,5 0 0,0
26.10.2020 04:00:00 10,1 7,7 16 9 30 16 SSW 1000,7 0 0,0
26.10.2020 03:00:00 9,8 7,9 10 6 23 13 SSW 1000,3 0 0,0
26.10.2020 02:00:00 10,1 8,1 12 6 21 12 SSW 1000,6 0 0,0
26.10.2020 01:00:00 9,5 8,1 7 4 14 8 S 1001,1 0 0,0
26.10.2020 00:00:00 9,9 7,9 9 5 18 10 S 1001,3 0 0,0
25.10.2020 23:00:00 10,4 8,2 9 5 26 14 S 1001,1 0 0,5
25.10.2020 22:00:00 11,6 9,0 11 6 24 13 S 1001,2 0 0,0
25.10.2020 21:00:00 11,0 8,9 7 4 16 9 S 1001,3 0 0,0
25.10.2020 20:00:00 10,9 8,6 9 5 16 9 SSE 1001,3 0 0,0
25.10.2020 19:00:00 11,3 8,4 11 6 22 12 S 1001,8 0 0,0
25.10.2020 18:00:00 11,8 8,6 10 5 24 13 S 1001,8 7 0,0
25.10.2020 17:00:00 12,4 8,9 11 6 22 12 S 1001,9 0 0,0
25.10.2020 16:00:00 12,5 9,1 13 7 26 14 S 1001,3 0 0,0
25.10.2020 15:00:00 12,8 9,6 16 9 28 15 S 1001,4 0 0,0
25.10.2020 14:00:00 12,7 9,8 12 7 29 16 S 1001,8 0 0,0
25.10.2020 13:00:00 12,5 9,9 14 8 27 14 S 1002,1 0 0,0
25.10.2020 12:00:00 12,2 9,8 10 6 27 14 S 1002,6 0 0,1
25.10.2020 11:00:00 12,7 9,9 17 9 31 17 SSW 1002,3 0 0,0
25.10.2020 10:00:00 12,5 10,8 11 6 17 9 SSW 1002,3 0 0,0
25.10.2020 09:00:00 11,7 10,5 5 3 23 12 SSW 1002,5 0 0,4
25.10.2020 08:00:00 11,5 10,0 15 8 25 14 SSW 1002,7 0 0,3
25.10.2020 07:00:00 11,0 9,4 14 8 29 16 SSW 1002,3 0 0,9
25.10.2020 06:00:00 11,7 9,4 16 9 72 39 SSW 1002,5 0 1,1
25.10.2020 05:00:00 15,6 9,9 25 13 44 24 S 1001,3 0 0,0
25.10.2020 04:00:00 15,5 10,2 18 10 44 24 S 1001,8 0 0,0
25.10.2020 03:00:00 15,9 10,2 25 13 48 26 S 1002,4 0 0,0
25.10.2020 02:00:00 - - - - - - - - 0 0,4
25.10.2020 01:00:00 - - - - - - - - - -
25.10.2020 00:00:00 15,4 11,7 26 14 50 27 S 1004,6 0 0,0
24.10.2020 23:00:00 16,3 11,4 25 14 49 27 S 1004,9 0 0,0
24.10.2020 22:00:00 16,2 11,7 24 13 49 26 S 1005,3 0 0,0
24.10.2020 21:00:00 16,2 12,0 23 13 50 27 S 1005,9 0 0,0
24.10.2020 20:00:00 15,7 12,3 17 9 40 22 S 1006,7 0 0,0
24.10.2020 19:00:00 15,6 12,1 14 8 36 20 S 1007,4 0 0,0
24.10.2020 18:00:00 15,4 11,7 15 8 38 20 S 1008,0 0 0,0
24.10.2020 17:00:00 15,9 12,1 21 11 37 20 S 1008,5 0 0,0
24.10.2020 16:00:00 15,7 12,2 15 8 33 18 S 1009,0 0 0,0
24.10.2020 15:00:00 15,1 12,5 15 8 31 17 S 1009,8 2 0,0
24.10.2020 14:00:00 14,0 12,4 15 8 41 22 S 1010,4 0 0,0
24.10.2020 13:00:00 15,6 11,2 27 14 42 23 SSW 1011,0 14 0,0
24.10.2020 12:00:00 15,1 11,0 22 12 36 19 SSW 1011,6 38 0,0
24.10.2020 11:00:00 13,3 11,5 17 9 29 16 SSW 1011,9 7 0,1
24.10.2020 10:00:00 12,5 11,4 16 9 34 18 SSW 1012,1 0 0,1
24.10.2020 09:00:00 12,4 11,3 16 9 33 18 SSW 1012,1 0 0,1
24.10.2020 08:00:00 12,3 11,0 16 8 32 17 SSW 1011,9 0 0,0
24.10.2020 07:00:00 12,9 10,5 18 10 28 15 SSW 1011,9 0 0,0
24.10.2020 06:00:00 13,2 10,2 15 8 25 14 SSW 1012,2 0 0,0
24.10.2020 05:00:00 12,9 10,5 12 7 22 12 SSW 1012,3 0 0,1
24.10.2020 04:00:00 13,2 10,3 13 7 25 13 SSW 1012,4 0 0,0
24.10.2020 03:00:00 13,3 10,2 13 7 32 18 SW 1012,8 0 0,0
24.10.2020 02:00:00 13,1 10,3 13 7 25 14 SSW 1012,7 0 0,0
24.10.2020 01:00:00 13,0 10,6 11 6 22 12 SSW 1012,8 0 0,0
24.10.2020 00:00:00 13,3 10,7 13 7 22 12 SW 1012,7 0 0,0
23.10.2020 23:00:00 13,3 10,6 11 6 28 15 SSW 1012,8 0 0,0
23.10.2020 22:00:00 14,4 10,6 16 8 24 13 SW 1012,3 0 0,0
23.10.2020 21:00:00 14,6 10,5 10 5 18 10 SSW 1011,4 0 0,0
23.10.2020 20:00:00 14,8 10,9 9 5 17 9 SW 1011,1 0 0,0
23.10.2020 19:00:00 15,2 10,9 11 6 19 10 SSW 1010,8 0 0,0
23.10.2020 18:00:00 16,0 11,1 10 5 25 13 SSW 1010,6 2 0,0
23.10.2020 17:00:00 17,1 11,2 14 8 25 14 SW 1010,4 43 0,0
23.10.2020 16:00:00 17,6 12,2 13 7 24 13 SSW 1010,1 54 0,0
23.10.2020 15:00:00 17,3 13,0 11 6 21 12 SW 1010,0 37 0,0
23.10.2020 14:00:00 17,3 13,8 11 6 21 11 SSW 1010,1 33 0,0
23.10.2020 13:00:00 14,7 13,1 7 4 24 13 SW 1010,4 0 0,0
23.10.2020 12:00:00 14,5 13,6 9 5 17 9 SW 1010,9 0 0,0
23.10.2020 11:00:00 14,0 13,5 9 5 15 8 SSW 1010,9 0 0,0
23.10.2020 10:00:00 12,6 12,0 4 2 7 4 S 1011,0 1 0,0
23.10.2020 09:00:00 10,2 9,7 0 0 2 1 N 1011,0 0 0,0
23.10.2020 08:00:00 9,3 8,8 4 2 4 2 ESE 1010,9 0 0,0
23.10.2020 07:00:00 9,2 8,6 0 0 5 3 N 1010,8 0 0,0
23.10.2020 06:00:00 9,0 8,4 0 0 3 2 N 1011,1 0 0,0
23.10.2020 05:00:00 9,4 8,8 0 0 5 3 N 1011,1 0 0,0
23.10.2020 04:00:00 8,7 8,2 4 2 4 2 N 1011,8 0 0,0
23.10.2020 03:00:00 9,9 9,4 4 2 9 5 SSE 1012,2 0 0,0
23.10.2020 02:00:00 9,5 9,0 4 2 5 3 SE 1012,6 0 0,0
23.10.2020 01:00:00 10,6 10,1 4 2 7 4 S 1013,0 0 0,0
23.10.2020 00:00:00 11,0 10,4 4 2 7 4 SW 1012,8 0 0,0
22.10.2020 23:00:00 10,1 9,4 4 2 6 3 S 1012,8 0 0,0
22.10.2020 22:00:00 11,1 10,3 5 3 6 4 SSE 1012,7 0 0,0
22.10.2020 21:00:00 12,7 11,7 4 2 9 5 W 1012,6 0 0,0
22.10.2020 20:00:00 14,0 12,7 5 3 10 5 SW 1012,1 0 0,0
22.10.2020 19:00:00 14,7 13,0 7 4 10 5 SSW 1012,2 0 0,0
22.10.2020 18:00:00 15,4 13,2 7 4 16 9 SW 1011,7 20 0,0
22.10.2020 17:00:00 16,5 13,5 9 5 25 13 SW 1011,2 59 0,0
22.10.2020 16:00:00 16,5 14,0 10 5 21 11 SSW 1011,1 46 0,0
22.10.2020 15:00:00 16,0 14,2 11 6 27 14 SSW 1011,0 7 1,1
22.10.2020 14:00:00 16,3 13,5 14 8 28 15 SSW 1011,4 0 0,0
22.10.2020 13:00:00 16,2 13,6 11 6 22 12 SW 1011,7 0 0,0
22.10.2020 12:00:00 16,6 13,0 14 8 26 14 SSW 1012,0 6 0,0
22.10.2020 11:00:00 16,6 12,7 14 7 31 17 SSW 1012,1 15 0,0
22.10.2020 10:00:00 16,3 12,5 17 9 35 19 SSW 1011,9 22 0,0
22.10.2020 09:00:00 14,7 12,0 13 7 24 13 SSW 1011,7 10 0,0
22.10.2020 08:00:00 13,6 11,0 12 6 20 11 SSW 1010,9 0 0,0
22.10.2020 07:00:00 13,3 11,1 11 6 17 9 SSW 1010,3 0 0,0
22.10.2020 06:00:00 13,7 11,3 10 6 19 11 SSW 1009,9 0 0,0
22.10.2020 05:00:00 14,3 11,6 13 7 24 13 SW 1009,8 0 0,0
22.10.2020 04:00:00 14,6 11,7 11 6 22 12 SSW 1009,9 0 0,0
22.10.2020 03:00:00 14,5 11,6 10 5 20 11 SSW 1009,5 0 0,0
22.10.2020 02:00:00 15,1 12,0 12 6 27 15 SSW 1009,3 0 0,0
22.10.2020 01:00:00 15,7 12,4 14 8 29 15 SW 1008,9 0 0,0
22.10.2020 00:00:00 15,2 13,2 8 5 17 9 SSW 1008,1 0 0,0
21.10.2020 23:00:00 15,5 13,3 10 6 24 13 WSW 1007,5 0 0,0
21.10.2020 22:00:00 15,8 13,5 16 9 44 24 SW 1006,9 0 0,0
21.10.2020 21:00:00 17,0 12,8 25 14 48 26 SW 1006,0 0 0,0
21.10.2020 20:00:00 18,9 11,7 26 14 47 25 SW 1004,6 0 0,0
21.10.2020 19:00:00 19,3 11,6 29 16 52 28 SW 1003,2 0 0,0
21.10.2020 18:00:00 19,9 12,5 29 16 53 29 SW 1001,9 0 0,0
21.10.2020 17:00:00 20,2 12,7 27 14 66 36 SW 1000,9 25 0,0
21.10.2020 16:00:00 20,9 12,7 35 19 69 37 SSW 999,9 49 0,0
21.10.2020 15:00:00 21,2 12,5 40 21 72 39 SSW 999,0 33 0,0
21.10.2020 14:00:00 20,7 12,3 31 17 61 33 SSW 998,5 20 0,0
21.10.2020 13:00:00 20,8 11,7 32 18 65 35 S 998,6 55 0,0
21.10.2020 12:00:00 19,3 12,0 24 13 50 27 S 998,9 32 0,0
21.10.2020 11:00:00 15,7 12,2 16 9 32 18 SSE 999,6 18 0,0
21.10.2020 10:00:00 13,4 11,8 13 7 24 13 SE 1000,6 0 0,3
21.10.2020 09:00:00 13,1 11,7 12 6 26 14 SSE 1001,9 0 1,2
21.10.2020 08:00:00 12,7 11,6 8 5 17 9 SE 1002,0 0 0,4
21.10.2020 07:00:00 12,6 11,5 7 4 16 9 SE 1002,4 0 1,2
21.10.2020 06:00:00 12,7 11,6 9 5 19 10 SSE 1003,1 0 1,2
21.10.2020 05:00:00 13,1 11,8 9 5 19 11 SSE 1003,6 0 0,3
21.10.2020 04:00:00 13,4 12,1 10 5 16 9 SSE 1004,0 0 0,4
21.10.2020 03:00:00 13,7 12,2 9 5 19 10 SSE 1004,7 0 0,3
21.10.2020 02:00:00 13,9 12,2 9 5 17 9 SSE 1005,3 0 0,1
21.10.2020 01:00:00 14,2 12,3 11 6 20 11 SSE 1005,7 0 0,0
21.10.2020 00:00:00 14,1 12,3 9 5 19 11 SSE 1006,2 0 0,0
20.10.2020 23:00:00 14,4 12,5 10 5 20 11 SSE 1006,8 0 0,0
20.10.2020 22:00:00 14,4 12,7 11 6 20 11 S 1007,4 0 0,0
20.10.2020 21:00:00 14,2 12,7 9 5 24 13 SSE 1007,4 0 0,2
20.10.2020 20:00:00 14,5 12,8 10 5 20 11 S 1007,6 0 0,1
20.10.2020 19:00:00 15,3 12,6 14 8 23 13 S 1007,7 0 0,0
20.10.2020 18:00:00 15,2 12,5 12 6 23 12 S 1007,5 0 0,0
20.10.2020 17:00:00 15,5 12,3 10 5 28 15 S 1007,9 0 0,1
20.10.2020 16:00:00 16,0 11,3 15 8 34 18 S 1007,4 0 0,0
20.10.2020 15:00:00 16,4 10,5 13 7 34 18 S 1008,2 0 0,0
20.10.2020 14:00:00 16,4 10,5 17 9 30 16 SSW 1008,3 0 0,0
20.10.2020 13:00:00 15,8 10,8 13 7 27 15 S 1008,1 0 0,0
20.10.2020 12:00:00 14,5 10,5 12 6 24 13 S 1008,3 0 0,0
20.10.2020 11:00:00 13,5 9,6 11 6 26 14 S 1008,6 0 0,0

tt = temperature
td = dewpoint
ff = wind speed
fx = gusts
dd = wind direction
ppp = reduced air pressure
sd = sunshine duration
rr = precipitation

Next stations